Time;durP1;ratioP1;P1;durP2;ratioP2;P2;SDS_P1;SDS_P2;PMS_P1;PMS_P2;Temp;Humidity;BMP_temperature;BMP_pressure;BME280_temperature;BME280_humidity;BME280_pressure;Samples;Min_cycle;Max_cycle;Signal;HPM_P1;HPM_P2
2024/03/24 04:58:14;;;;;;;4.97;2.40;;;4.00;99.90;;;;;;6204455;22;20443;-75
2024/03/24 05:00:40;;;;;;;8.10;3.27;;;4.10;99.90;;;;;;6182683;23;20374;-76
2024/03/24 05:03:07;;;;;;;8.67;3.60;;;4.00;99.90;;;;;;6205782;23;20225;-74
2024/03/24 05:05:35;;;;;;;6.60;3.30;;;4.00;99.90;;;;;;6158148;23;20384;-76
2024/03/24 05:08:05;;;;;;;9.70;4.50;;;4.00;99.90;;;;;;6232696;23;20357;-74
2024/03/24 05:10:32;;;;;;;13.00;4.90;;;4.00;99.90;;;;;;6181234;23;20384;-76
2024/03/24 05:12:59;;;;;;;12.53;5.17;;;4.00;99.90;;;;;;6205448;23;20362;-75
2024/03/24 05:15:28;;;;;;;17.30;5.33;;;4.00;99.90;;;;;;6206884;23;20646;-74
2024/03/24 05:17:55;;;;;;;11.83;5.13;;;4.00;99.90;;;;;;6188344;23;20430;-75
2024/03/24 05:20:21;;;;;;;10.30;4.77;;;4.00;99.90;;;;;;6212546;23;20385;-75
2024/03/24 05:22:49;;;;;;;9.07;4.77;;;4.00;99.90;;;;;;6184348;23;20445;-76
2024/03/24 05:25:22;;;;;;;12.37;5.10;;;4.10;99.90;;;;;;6160819;23;20357;-76
2024/03/24 05:27:48;;;;;;;8.03;4.83;;;4.10;99.90;;;;;;6147050;23;20415;-75
2024/03/24 05:31:04;;;;;;;10.27;4.40;;;4.10;99.90;;;;;;6151850;23;20385;-76
2024/03/24 05:33:36;;;;;;;10.87;4.60;;;4.20;99.90;;;;;;6182375;23;20389;-75
2024/03/24 05:36:45;;;;;;;8.07;3.70;;;4.20;99.90;;;;;;6152947;23;20388;-75
2024/03/24 05:39:22;;;;;;;6.50;3.50;;;4.20;99.90;;;;;;6151248;23;20391;-75
2024/03/24 05:42:14;;;;;;;5.23;3.40;;;4.30;99.90;;;;;;6097107;23;20381;-75
2024/03/24 05:44:41;;;;;;;5.27;2.53;;;4.30;99.90;;;;;;6096991;23;20456;-75
2024/03/24 05:47:09;;;;;;;5.40;2.60;;;4.30;99.90;;;;;;6091713;23;20416;-75
2024/03/24 05:49:36;;;;;;;6.97;3.73;;;4.30;99.90;;;;;;6222496;23;20421;-74
2024/03/24 05:52:06;;;;;;;4.70;2.90;;;4.40;99.90;;;;;;6245979;23;20391;-76
2024/03/24 05:54:34;;;;;;;7.07;2.80;;;4.40;99.90;;;;;;6220949;23;20371;-76
2024/03/24 05:57:22;;;;;;;6.70;2.90;;;4.40;99.90;;;;;;6248908;23;20381;-75
2024/03/24 05:59:53;;;;;;;5.40;2.33;;;4.40;99.90;;;;;;6166865;23;20429;-74
2024/03/24 06:02:20;;;;;;;4.17;2.47;;;4.40;99.90;;;;;;6186428;23;20397;-76
2024/03/24 06:04:49;;;;;;;6.20;3.00;;;4.40;99.90;;;;;;6160074;23;20397;-76
2024/03/24 06:07:18;;;;;;;8.27;3.43;;;4.40;99.90;;;;;;6136041;23;20394;-75
2024/03/24 06:10:37;;;;;;;9.40;3.20;;;4.50;99.90;;;;;;6155761;23;20425;-75
2024/03/24 06:13:28;;;;;;;4.70;3.27;;;4.50;99.90;;;;;;6180056;23;20359;-76
2024/03/24 06:16:03;;;;;;;7.90;3.80;;;4.60;99.90;;;;;;6204239;23;20406;-75
2024/03/24 06:18:33;;;;;;;8.10;4.17;;;4.60;99.90;;;;;;6180992;23;20402;-74
2024/03/24 06:21:03;;;;;;;9.93;4.30;;;4.60;99.90;;;;;;6131281;23;20443;-75
2024/03/24 06:23:34;;;;;;;11.70;4.00;;;4.60;99.90;;;;;;6098012;23;20400;-76
2024/03/24 06:26:17;;;;;;;9.10;4.63;;;4.70;99.90;;;;;;6049875;23;20381;-75
2024/03/24 06:28:53;;;;;;;13.47;5.43;;;4.70;99.90;;;;;;6121362;23;20429;-75
2024/03/24 06:31:26;;;;;;;8.43;5.27;;;4.80;99.90;;;;;;6012143;23;20394;-75
2024/03/24 06:34:06;;;;;;;9.10;5.03;;;4.80;99.90;;;;;;5988354;23;20391;-75
2024/03/24 06:37:04;;;;;;;10.13;4.70;;;4.80;99.90;;;;;;6012439;23;20403;-77
2024/03/24 06:39:56;;;;;;;11.90;5.10;;;4.80;99.90;;;;;;6012674;23;20367;-75
2024/03/24 06:48:38;;;;;;;10.30;5.00;;;4.90;99.90;;;;;;6209830;23;20437;-75
2024/03/24 06:52:36;;;;;;;9.57;4.60;;;4.90;99.90;;;;;;6095384;23;20409;-75
2024/03/24 06:56:17;;;;;;;15.63;4.70;;;5.10;99.90;;;;;;6121384;23;20465;-76
2024/03/24 23:07:39;;;;;;;11.43;3.83;;;6.20;99.90;;;;;;6137287;23;21014;-75
2024/03/24 23:10:08;;;;;;;19.47;4.53;;;6.20;99.90;;;;;;6085116;23;20426;-77
2024/03/24 23:12:34;;;;;;;12.60;3.40;;;6.10;99.90;;;;;;6109346;23;20356;-76
2024/03/24 23:14:59;;;;;;;13.90;3.70;;;6.20;99.90;;;;;;6135466;23;20376;-75
2024/03/24 23:17:25;;;;;;;9.20;3.57;;;6.20;99.90;;;;;;6110664;23;20163;-75
2024/03/24 23:19:51;;;;;;;16.27;3.60;;;6.20;99.90;;;;;;6134927;23;20378;-79
2024/03/24 23:22:17;;;;;;;11.50;4.00;;;6.10;99.90;;;;;;6134609;23;20364;-76
2024/03/24 23:27:31;;;;;;;13.73;3.60;;;6.00;99.90;;;;;;6226427;22;20524;-75
2024/03/24 23:29:57;;;;;;;12.50;3.60;;;6.10;99.90;;;;;;6195721;23;20413;-76
2024/03/24 23:32:22;;;;;;;15.33;4.90;;;6.10;99.90;;;;;;6197378;23;20458;-75
2024/03/24 23:34:48;;;;;;;10.83;3.80;;;6.10;99.90;;;;;;6172182;23;20365;-75
2024/03/24 23:37:14;;;;;;;9.90;3.40;;;6.10;99.90;;;;;;6199332;23;20189;-76
2024/03/24 23:39:39;;;;;;;12.40;3.27;;;6.00;99.90;;;;;;6173829;23;20189;-76
2024/03/24 23:42:05;;;;;;;14.83;4.13;;;6.00;99.90;;;;;;6199719;23;20220;-75
2024/03/24 23:44:35;;;;;;;9.53;3.70;;;6.10;99.90;;;;;;6199343;23;20153;-74
2024/03/24 23:47:43;;;;;;;9.80;4.07;;;6.10;99.90;;;;;;6182985;23;20402;-73
